Briarcliff, Texas
Current Conditions -  °F | °C
As of 7:35 PM on Wednesday 26 Nov 2014 (Local Time) from KRYW Reporting Station
Clear Clear  
Wind Chill: 58°   Ceiling: Unl
Heat Index: 58°   Visibility: 10mi
Dew Point: 32°   Wind: 8mph
Humidity: 37%   Direction: 20°NNE
Pressure: 30.28"   Gusts: NA
Location:  30.3864°N, 98.0483°W
Report Text: KRYW 270135Z AUTO 02007KT 10SM CLR 15/00 A3028 RMK AO2 T01450000
Loading
Personal Weather Stations






























Interactive Weather Map New forecast layout! Learn more

10-Day Weather Forecast

Advertisements
Track Severe Weather on mobile